This is the latest recevied weather packets stored in our database for station/object GUNLAK-WX. If no packets are shown the sender has not sent any weather packets the latest 10 day(s).
| Time | Temp. | Humidity | Pressure | Rain* | Wind** | Luminosity | Snow |
|---|---|---|---|---|---|---|---|
| 1777653972 | 7.22° C | 59% | 987.9 hPa | 0 mm | - | - | - |
| 1777653093 | 7.22° C | 61% | 988.2 hPa | 0 mm | - | - | - |
| 1777652174 | 7.22° C | 61% | 988.2 hPa | 0 mm | - | - | - |
| 1777651311 | 6.67° C | 61% | 988.2 hPa | 0 mm | - | - | - |
| 1777650373 | 6.67° C | 68% | 988.3 hPa | 0 mm | - | - | - |
| 1777649489 | 6.67° C | 59% | 988.9 hPa | 0 mm | - | - | - |
| 1777647705 | 6.67° C | 59% | 989 hPa | 0 mm | - | - | - |
| 1777646774 | 6.67° C | 72% | 988.1 hPa | 0 mm | - | - | - |
| 1777645892 | 6.67° C | 64% | 988.7 hPa | 0 mm | - | - | - |
| 1777644973 | 6.11° C | 64% | 988.7 hPa | 0 mm | - | - | - |
| 1777644117 | 6.11° C | 64% | 988.7 hPa | 0 mm | - | - | - |
| 1777643173 | 5.56° C | 69% | 988.2 hPa | 0 mm | - | - | - |
| 1777642292 | 5.56° C | 69% | 988.2 hPa | 0 mm | - | - | - |
| 1777641373 | 5° C | 69% | 988.2 hPa | 0 mm | - | - | - |
| 1777640505 | 5° C | 69% | 988.2 hPa | 0 mm | - | - | - |
| 1777639573 | 4.44° C | 79% | 987.7 hPa | 0 mm | - | - | - |
| 1777638690 | 4.44° C | 85% | 987.7 hPa | 0 mm | - | - | - |
| 1777637773 | 3.89° C | 85% | 987.7 hPa | 0 mm | - | - | - |
| 1777636910 | 3.89° C | 85% | 987.7 hPa | 0 mm | - | - | - |
| 1777635973 | 3.33° C | 93% | 987 hPa | 0 mm | - | - | - |
| 1777635089 | 3.33° C | 93% | 987.1 hPa | 0 mm | - | - | - |
| 1777634173 | 2.78° C | 93% | 987.1 hPa | 0 mm | - | - | - |
| 1777633302 | 2.78° C | 93% | 987.1 hPa | 0 mm | - | - | - |
| 1777632373 | 2.22° C | 93% | 986.8 hPa | 0 mm | - | - | - |
| 1777631491 | 2.78° C | 93% | 987.4 hPa | 0 mm | - | - | - |
* Rain latest hour (hover to see other rain measurements)
** Current wind speed in m/s (hover to see current wind gust speed)